createdAt,value
2022-10-16T00:01:42.405Z,16.10
2022-10-16T00:04:11.562Z,16.10
2022-10-16T00:06:39.972Z,16.10
2022-10-16T00:09:08.639Z,16.10
2022-10-16T00:11:40.537Z,16.10
2022-10-16T00:14:13.773Z,16.10
2022-10-16T00:16:43.691Z,16.10
2022-10-16T00:19:13.497Z,16.10
2022-10-16T00:21:41.923Z,16.10
2022-10-16T00:24:11.779Z,16.10
2022-10-16T00:26:40.785Z,16.10
2022-10-16T00:29:09.871Z,16.20
2022-10-16T00:31:38.249Z,16.20
2022-10-16T00:34:07.720Z,16.20
2022-10-16T00:36:35.815Z,16.20
2022-10-16T00:39:04.730Z,16.20
2022-10-16T00:41:33.828Z,16.20
2022-10-16T00:44:04.696Z,16.20
2022-10-16T00:46:39.678Z,16.20
2022-10-16T00:49:12.161Z,16.10
2022-10-16T00:51:43.086Z,16.10
2022-10-16T00:54:16.772Z,16.10
2022-10-16T00:56:47.186Z,16.10
2022-10-16T00:59:21.405Z,16.00
2022-10-16T01:01:49.535Z,16.00
2022-10-16T01:04:19.426Z,16.00
2022-10-16T01:06:57.928Z,16.00
2022-10-16T01:09:33.931Z,16.00
2022-10-16T01:12:12.423Z,16.10
2022-10-16T01:14:48.278Z,16.10
2022-10-16T01:17:23.277Z,16.00
2022-10-16T01:20:13.355Z,16.00
2022-10-16T01:22:52.999Z,16.00
2022-10-16T01:25:31.676Z,15.90
2022-10-16T01:28:03.446Z,15.90
2022-10-16T01:30:34.594Z,16.00
2022-10-16T01:33:10.217Z,15.90
2022-10-16T01:35:43.287Z,16.00
2022-10-16T01:38:18.069Z,16.00
2022-10-16T01:40:52.533Z,16.00
2022-10-16T01:43:26.649Z,16.00
2022-10-16T01:45:55.667Z,16.00
2022-10-16T01:48:24.808Z,16.10
2022-10-16T01:51:03.349Z,16.10
2022-10-16T01:53:33.087Z,16.10
2022-10-16T01:56:02.365Z,16.10
2022-10-16T01:58:36.396Z,16.00
2022-10-16T02:01:07.024Z,16.00
2022-10-16T02:03:36.776Z,16.00
2022-10-16T02:06:05.022Z,16.00
2022-10-16T02:08:33.904Z,16.00
2022-10-16T02:11:03.055Z,15.90
2022-10-16T02:13:39.788Z,15.90
2022-10-16T02:16:09.459Z,15.90
2022-10-16T02:18:37.619Z,15.90
2022-10-16T02:21:12.536Z,15.90
2022-10-16T02:23:51.439Z,15.90
2022-10-16T02:26:30.827Z,16.00
2022-10-16T02:29:13.241Z,16.00
2022-10-16T02:31:46.123Z,16.00
2022-10-16T02:34:16.400Z,16.10
2022-10-16T02:36:46.007Z,16.10
2022-10-16T02:39:14.377Z,16.10
2022-10-16T02:41:42.731Z,16.10
2022-10-16T02:44:12.184Z,16.20
2022-10-16T02:46:40.307Z,16.20
2022-10-16T02:49:08.430Z,16.20
2022-10-16T02:51:36.524Z,16.20
2022-10-16T02:54:05.017Z,16.20
2022-10-16T02:56:33.152Z,16.20
2022-10-16T02:59:01.300Z,16.20
2022-10-16T03:01:30.920Z,16.20
2022-10-16T03:03:59.182Z,16.20
2022-10-16T03:06:27.349Z,16.20
2022-10-16T03:08:55.431Z,16.20
2022-10-16T03:11:23.569Z,16.20
2022-10-16T03:13:51.623Z,16.30
2022-10-16T03:16:19.865Z,16.30
2022-10-16T03:18:51.767Z,16.30
2022-10-16T03:21:19.878Z,16.30
2022-10-16T03:23:47.949Z,16.30
2022-10-16T03:26:16.025Z,16.20
2022-10-16T03:28:44.189Z,16.20
2022-10-16T03:31:12.516Z,16.10
2022-10-16T03:33:40.826Z,16.10
2022-10-16T03:36:10.256Z,16.00
2022-10-16T03:38:38.471Z,16.00
2022-10-16T03:41:08.626Z,16.00
2022-10-16T03:43:36.812Z,15.90
2022-10-16T03:46:04.991Z,15.90
2022-10-16T03:48:33.103Z,15.80
2022-10-16T03:51:01.664Z,15.80
2022-10-16T03:53:31.124Z,15.70
2022-10-16T03:55:59.226Z,15.70
2022-10-16T03:58:27.302Z,15.60
2022-10-16T04:00:55.699Z,15.60
2022-10-16T04:03:24.002Z,15.60
2022-10-16T04:05:52.406Z,15.50
2022-10-16T04:08:20.458Z,15.50
2022-10-16T04:10:49.867Z,15.50
2022-10-16T04:15:48.063Z,15.40
2022-10-16T04:18:16.146Z,15.40
2022-10-16T04:20:44.279Z,15.40
2022-10-16T04:23:12.382Z,15.40
2022-10-16T04:25:40.452Z,15.30
2022-10-16T04:28:09.884Z,15.30
2022-10-16T04:30:40.793Z,15.30
2022-10-16T04:33:10.860Z,15.30
2022-10-16T04:35:38.968Z,15.20
2022-10-16T04:38:07.090Z,15.20
2022-10-16T04:40:37.255Z,15.20
2022-10-16T04:43:05.863Z,15.20
2022-10-16T04:45:35.287Z,15.10
2022-10-16T04:48:03.335Z,15.10
2022-10-16T04:50:31.490Z,15.10
2022-10-16T04:53:07.165Z,15.10
2022-10-16T04:55:35.580Z,15.00
2022-10-16T04:58:03.941Z,15.00
2022-10-16T05:00:32.097Z,15.00
2022-10-16T05:03:02.008Z,15.00
2022-10-16T05:05:30.373Z,15.00
2022-10-16T05:07:58.451Z,15.00
2022-10-16T05:10:26.544Z,15.00
2022-10-16T05:12:54.688Z,15.00
2022-10-16T05:15:25.774Z,15.00
2022-10-16T05:17:55.636Z,15.00
2022-10-16T05:20:25.345Z,15.00
2022-10-16T05:22:53.632Z,14.90
2022-10-16T05:25:21.828Z,14.90
2022-10-16T05:27:50.599Z,14.90
2022-10-16T05:30:19.668Z,15.00
2022-10-16T05:32:49.879Z,15.00
2022-10-16T05:35:19.131Z,15.00
2022-10-16T05:37:49.589Z,15.00
2022-10-16T05:40:18.178Z,15.00
2022-10-16T05:42:46.605Z,15.00
2022-10-16T05:45:14.786Z,15.00
2022-10-16T05:47:43.289Z,15.00
2022-10-16T05:50:11.597Z,15.00
2022-10-16T05:52:39.680Z,15.00
2022-10-16T05:55:10.227Z,14.90
2022-10-16T05:57:38.390Z,14.90
2022-10-16T06:00:08.208Z,14.90
2022-10-16T06:02:40.858Z,14.90
2022-10-16T06:05:09.172Z,14.90
2022-10-16T06:07:38.079Z,14.90
2022-10-16T06:10:09.893Z,14.90
2022-10-16T06:12:37.991Z,14.90
2022-10-16T06:15:07.271Z,14.90
2022-10-16T06:17:35.365Z,14.90
2022-10-16T06:20:03.424Z,15.00
2022-10-16T06:22:31.542Z,15.00
2022-10-16T06:24:59.646Z,15.10
2022-10-16T06:27:29.282Z,15.10
2022-10-16T06:29:58.545Z,15.10
2022-10-16T06:32:26.657Z,15.20
2022-10-16T06:34:54.758Z,15.20
2022-10-16T06:37:23.015Z,15.20
2022-10-16T06:39:53.138Z,15.20
2022-10-16T06:42:21.634Z,15.30
2022-10-16T06:44:51.078Z,15.40
2022-10-16T06:47:19.274Z,15.40
2022-10-16T06:49:51.762Z,15.50
2022-10-16T06:52:22.565Z,15.50
2022-10-16T06:54:51.711Z,15.60
2022-10-16T06:57:19.811Z,15.60
2022-10-16T06:59:50.099Z,15.70
2022-10-16T07:02:21.561Z,15.70
2022-10-16T07:04:49.798Z,15.80
2022-10-16T07:07:17.929Z,15.80
2022-10-16T07:09:46.058Z,15.80
2022-10-16T07:12:14.268Z,15.80
2022-10-16T07:14:42.478Z,15.80
2022-10-16T07:17:10.549Z,15.90
2022-10-16T07:19:40.192Z,15.90
2022-10-16T07:22:08.266Z,16.10
2022-10-16T07:24:36.362Z,16.20
2022-10-16T07:27:04.693Z,16.30
2022-10-16T07:29:32.877Z,16.50
2022-10-16T07:32:00.977Z,16.50
2022-10-16T07:34:29.044Z,16.60
2022-10-16T07:36:58.485Z,16.60
2022-10-16T07:39:26.592Z,16.60
2022-10-16T07:41:54.672Z,16.60
2022-10-16T07:44:22.947Z,16.60
2022-10-16T07:46:51.158Z,16.60
2022-10-16T07:49:19.225Z,16.60
2022-10-16T07:51:47.324Z,16.60
2022-10-16T07:54:16.816Z,16.50
2022-10-16T07:56:45.054Z,16.50
2022-10-16T07:59:13.164Z,16.50
2022-10-16T08:01:42.991Z,16.50
2022-10-16T08:04:12.034Z,16.60
2022-10-16T08:06:42.044Z,16.60
2022-10-16T08:09:10.743Z,16.60
2022-10-16T08:11:40.160Z,16.60
2022-10-16T08:14:08.369Z,16.70
2022-10-16T08:16:36.452Z,16.70
2022-10-16T08:19:05.225Z,16.80
2022-10-16T08:21:33.329Z,16.90
2022-10-16T08:24:01.506Z,17.00
2022-10-16T08:26:29.785Z,17.10
2022-10-16T08:28:59.345Z,17.20
2022-10-16T08:31:28.266Z,17.30
2022-10-16T08:33:56.503Z,17.50
2022-10-16T08:36:24.596Z,17.80
2022-10-16T08:38:55.087Z,18.70
2022-10-16T08:41:57.751Z,20.10
2022-10-16T08:44:56.257Z,21.20
2022-10-16T08:47:28.450Z,22.70
2022-10-16T08:50:01.487Z,22.90
2022-10-16T08:52:35.117Z,23.50
2022-10-16T08:55:04.375Z,23.70
2022-10-16T08:57:33.568Z,24.20
2022-10-16T09:00:15.508Z,24.80
2022-10-16T09:02:52.949Z,24.80
2022-10-16T09:05:38.165Z,24.50
2022-10-16T09:08:14.715Z,24.30
2022-10-16T09:10:54.300Z,24.00
2022-10-16T09:13:29.625Z,23.80
2022-10-16T09:16:13.579Z,23.60
2022-10-16T09:18:50.529Z,23.30
2022-10-16T09:21:24.173Z,23.10
2022-10-16T09:23:53.121Z,23.00
2022-10-16T09:28:54.675Z,22.50
2022-10-16T09:31:25.545Z,22.40
2022-10-16T09:34:00.524Z,22.30
2022-10-16T09:36:30.292Z,22.70
2022-10-16T09:39:07.579Z,23.40
2022-10-16T09:41:38.694Z,24.20
2022-10-16T09:44:20.517Z,25.80
2022-10-16T09:46:50.012Z,26.90
2022-10-16T09:49:24.888Z,27.40
2022-10-16T09:52:05.500Z,28.10
2022-10-16T09:54:33.970Z,29.00
2022-10-16T09:57:09.417Z,29.10
2022-10-16T09:59:49.698Z,28.60
2022-10-16T10:02:21.939Z,28.90
2022-10-16T10:04:55.129Z,28.40
2022-10-16T10:07:28.616Z,28.30
2022-10-16T10:09:58.881Z,28.00
2022-10-16T10:12:29.993Z,29.30
2022-10-16T10:15:00.549Z,30.40
2022-10-16T10:17:31.094Z,31.30
2022-10-16T10:20:02.399Z,32.10
2022-10-16T10:22:40.856Z,33.00
2022-10-16T10:25:25.736Z,33.70
2022-10-16T10:28:26.322Z,33.50
2022-10-16T10:31:03.011Z,32.70
2022-10-16T10:33:41.991Z,32.70
2022-10-16T10:36:28.076Z,33.20
2022-10-16T10:39:01.335Z,33.30
2022-10-16T10:42:11.180Z,32.70
2022-10-16T10:45:13.745Z,32.40
2022-10-16T10:47:55.969Z,32.70
2022-10-16T10:50:32.906Z,33.50
2022-10-16T10:53:12.263Z,32.60
2022-10-16T10:55:46.781Z,31.80
2022-10-16T10:59:01.211Z,30.70
2022-10-16T11:01:41.407Z,30.20
2022-10-16T11:04:38.529Z,30.00
2022-10-16T11:07:17.678Z,29.90
2022-10-16T11:09:50.028Z,30.80
2022-10-16T11:12:21.318Z,31.50
2022-10-16T11:14:56.915Z,32.10
2022-10-16T11:17:31.901Z,33.10
2022-10-16T11:20:07.792Z,33.80
2022-10-16T11:22:41.685Z,34.20
2022-10-16T11:25:18.418Z,35.00
2022-10-16T11:27:52.487Z,35.80
2022-10-16T11:30:25.121Z,36.30
2022-10-16T11:33:07.958Z,36.30
2022-10-16T11:35:45.922Z,36.20
2022-10-16T11:38:23.736Z,35.90
2022-10-16T11:40:58.422Z,35.80
2022-10-16T11:43:32.978Z,35.70
2022-10-16T11:46:09.234Z,35.20
2022-10-16T11:48:43.768Z,35.30
2022-10-16T11:51:20.113Z,35.90
2022-10-16T11:53:58.835Z,36.10
2022-10-16T11:56:27.330Z,36.10
2022-10-16T11:59:01.055Z,36.50
2022-10-16T12:01:38.682Z,36.70
2022-10-16T12:04:23.429Z,36.20
2022-10-16T12:06:57.741Z,35.80
2022-10-16T12:09:29.875Z,35.40
2022-10-16T12:11:58.447Z,35.30
2022-10-16T12:17:39.258Z,34.50
2022-10-16T12:20:27.890Z,33.10
2022-10-16T12:22:58.596Z,32.60
2022-10-16T12:25:31.778Z,33.10
2022-10-16T12:28:03.595Z,33.30
2022-10-16T12:30:35.965Z,33.80
2022-10-16T12:33:07.068Z,34.10
2022-10-16T12:35:44.917Z,34.10
2022-10-16T12:38:20.376Z,34.20
2022-10-16T12:41:00.700Z,34.70
2022-10-16T12:43:43.229Z,35.40
2022-10-16T12:46:41.065Z,35.80
2022-10-16T12:49:25.558Z,36.30
2022-10-16T12:51:53.762Z,36.60
2022-10-16T12:54:27.353Z,37.10
2022-10-16T12:57:15.740Z,37.20
2022-10-16T12:59:50.862Z,37.20
2022-10-16T13:02:49.315Z,37.40
2022-10-16T13:08:38.167Z,37.60
2022-10-16T13:11:18.234Z,37.60
2022-10-16T13:14:08.179Z,37.60
2022-10-16T13:16:48.431Z,36.10
2022-10-16T13:19:27.203Z,34.80
2022-10-16T13:22:05.332Z,34.10
2022-10-16T13:24:51.682Z,33.40
2022-10-16T13:27:35.926Z,32.70
2022-10-16T13:30:17.756Z,31.90
2022-10-16T13:32:49.268Z,31.20
2022-10-16T13:35:28.575Z,30.80
2022-10-16T13:38:17.439Z,30.50
2022-10-16T13:40:55.623Z,30.20
2022-10-16T13:43:29.195Z,29.90
2022-10-16T13:46:02.805Z,29.60
2022-10-16T13:48:32.648Z,29.20
2022-10-16T13:51:08.115Z,29.00
2022-10-16T13:53:37.775Z,28.80
2022-10-16T13:56:11.368Z,28.50
2022-10-16T13:58:39.642Z,28.30
2022-10-16T14:01:21.407Z,28.30
2022-10-16T14:03:50.645Z,28.60
2022-10-16T14:06:22.999Z,28.40
2022-10-16T14:08:58.691Z,28.40
2022-10-16T14:11:28.095Z,29.10
2022-10-16T14:13:57.437Z,29.50
2022-10-16T14:16:31.441Z,29.50
2022-10-16T14:19:02.400Z,29.20
2022-10-16T14:21:31.571Z,29.10
2022-10-16T14:23:59.944Z,29.10
2022-10-16T14:26:30.139Z,28.60
2022-10-16T14:29:13.814Z,27.80
2022-10-16T14:31:44.150Z,27.30
2022-10-16T14:34:33.623Z,27.00
2022-10-16T14:39:42.068Z,26.40
2022-10-16T14:42:19.986Z,26.20
2022-10-16T14:44:50.061Z,26.10
2022-10-16T14:47:25.668Z,26.00
2022-10-16T14:49:55.950Z,25.90
2022-10-16T14:52:24.145Z,25.80
2022-10-16T14:54:55.559Z,25.70
2022-10-16T14:57:29.131Z,25.60
2022-10-16T14:59:58.570Z,25.40
2022-10-16T15:02:32.338Z,25.30
2022-10-16T15:05:09.618Z,25.20
2022-10-16T15:07:37.708Z,25.50
2022-10-16T15:10:06.942Z,25.80
2022-10-16T15:12:35.466Z,25.80
2022-10-16T15:15:03.804Z,25.70
2022-10-16T15:17:33.263Z,25.60
2022-10-16T15:20:01.507Z,25.50
2022-10-16T15:22:29.655Z,25.40
2022-10-16T15:24:57.830Z,25.50
2022-10-16T15:27:26.097Z,25.70
2022-10-16T15:29:54.452Z,25.50
2022-10-16T15:32:22.793Z,25.20
2022-10-16T15:34:52.259Z,25.00
2022-10-16T15:37:20.436Z,24.90
2022-10-16T15:39:48.495Z,24.70
2022-10-16T15:42:16.591Z,24.40
2022-10-16T15:44:44.690Z,24.30
2022-10-16T15:47:13.773Z,24.10
2022-10-16T15:49:42.012Z,24.00
2022-10-16T15:52:11.452Z,23.90
2022-10-16T15:54:39.639Z,23.70
2022-10-16T15:57:07.795Z,23.60
2022-10-16T15:59:35.959Z,23.50
2022-10-16T16:02:04.097Z,23.40
2022-10-16T16:04:48.794Z,23.20
2022-10-16T16:07:18.375Z,23.10
2022-10-16T16:09:46.564Z,22.90
2022-10-16T16:12:14.719Z,22.80
2022-10-16T16:14:43.541Z,22.70
2022-10-16T16:17:11.744Z,22.60
2022-10-16T16:19:39.893Z,22.50
2022-10-16T16:22:09.578Z,22.30
2022-10-16T16:24:40.555Z,22.20
2022-10-16T16:27:08.820Z,22.10
2022-10-16T16:29:37.293Z,22.00
2022-10-16T16:32:05.646Z,21.90
2022-10-16T16:34:33.915Z,21.70
2022-10-16T16:37:02.033Z,21.60
2022-10-16T16:39:30.675Z,21.40
2022-10-16T16:42:00.418Z,21.30
2022-10-16T16:44:28.549Z,21.20
2022-10-16T16:46:56.696Z,21.00
2022-10-16T16:49:27.500Z,20.90
2022-10-16T16:51:55.947Z,20.80
2022-10-16T16:54:24.277Z,20.70
2022-10-16T16:56:52.508Z,20.60
2022-10-16T16:59:23.323Z,20.50
2022-10-16T17:01:56.669Z,20.40
2022-10-16T17:04:25.244Z,20.30
2022-10-16T17:06:55.069Z,20.20
2022-10-16T17:09:24.183Z,20.20
2022-10-16T17:11:52.297Z,20.10
2022-10-16T17:14:21.994Z,20.10
2022-10-16T17:17:14.558Z,20.10
2022-10-16T17:19:42.691Z,20.00
2022-10-16T17:22:10.819Z,20.00
2022-10-16T17:24:38.927Z,20.00
2022-10-16T17:27:07.027Z,19.90
2022-10-16T17:29:36.451Z,19.90
2022-10-16T17:32:05.091Z,19.80
2022-10-16T17:34:33.287Z,19.70
2022-10-16T17:37:01.615Z,19.70
2022-10-16T17:39:29.704Z,19.70
2022-10-16T17:41:57.802Z,19.60
2022-10-16T17:44:25.867Z,19.50
2022-10-16T17:46:56.114Z,19.40
2022-10-16T17:51:57.552Z,19.30
2022-10-16T17:54:25.695Z,19.30
2022-10-16T17:56:53.892Z,19.20
2022-10-16T17:59:23.080Z,19.10
2022-10-16T18:01:51.486Z,19.10
2022-10-16T18:04:21.500Z,19.00
2022-10-16T18:06:49.812Z,19.00
2022-10-16T18:09:20.674Z,18.90
2022-10-16T18:11:52.430Z,18.90
2022-10-16T18:14:20.572Z,18.80
2022-10-16T18:19:20.011Z,18.80
2022-10-16T18:21:49.287Z,18.70
2022-10-16T18:24:18.492Z,18.70
2022-10-16T18:26:47.002Z,18.60
2022-10-16T18:29:15.091Z,18.60
2022-10-16T18:31:43.679Z,18.50
2022-10-16T18:34:12.769Z,18.50
2022-10-16T18:36:42.995Z,18.50
2022-10-16T18:39:12.115Z,18.40
2022-10-16T18:41:44.609Z,18.40
2022-10-16T18:44:13.882Z,18.40
2022-10-16T18:46:42.523Z,18.30
2022-10-16T18:49:10.983Z,18.30
2022-10-16T18:51:42.897Z,18.30
2022-10-16T18:54:13.564Z,18.30
2022-10-16T18:56:41.898Z,18.20
2022-10-16T18:59:11.273Z,18.20
2022-10-16T19:01:39.871Z,18.10
2022-10-16T19:04:11.219Z,18.00
2022-10-16T19:06:43.739Z,17.90
2022-10-16T19:09:13.451Z,17.80
2022-10-16T19:11:42.361Z,17.70
2022-10-16T19:14:10.812Z,17.60
2022-10-16T19:16:39.332Z,17.50
2022-10-16T19:19:09.637Z,17.40
2022-10-16T19:21:40.769Z,17.40
2022-10-16T19:24:14.976Z,17.30
2022-10-16T19:26:43.964Z,17.20
2022-10-16T19:29:12.761Z,17.10
2022-10-16T19:31:41.817Z,17.10
2022-10-16T19:34:11.587Z,17.00
2022-10-16T19:36:41.261Z,17.00
2022-10-16T19:39:15.791Z,16.90
2022-10-16T19:41:44.897Z,16.90
2022-10-16T19:44:16.094Z,16.80
2022-10-16T19:46:45.129Z,16.80
2022-10-16T19:49:16.931Z,16.80
2022-10-16T19:51:48.945Z,16.70
2022-10-16T19:54:18.649Z,16.70
2022-10-16T19:56:47.000Z,16.60
2022-10-16T19:59:18.976Z,16.60
2022-10-16T20:01:47.794Z,16.60
2022-10-16T20:04:16.676Z,16.50
2022-10-16T20:06:45.087Z,16.50
2022-10-16T20:09:13.283Z,16.50
2022-10-16T20:11:42.902Z,16.50
2022-10-16T20:14:11.187Z,16.50
2022-10-16T20:16:40.399Z,16.50
2022-10-16T20:19:08.523Z,16.50
2022-10-16T20:21:36.808Z,16.50
2022-10-16T20:24:06.725Z,16.40
2022-10-16T20:26:35.739Z,16.40
2022-10-16T20:29:06.655Z,16.40
2022-10-16T20:31:36.138Z,16.40
2022-10-16T20:34:07.841Z,16.40
2022-10-16T20:36:37.817Z,16.30
2022-10-16T20:39:07.276Z,16.30
2022-10-16T20:41:36.249Z,16.30
2022-10-16T20:44:06.341Z,16.30
2022-10-16T20:46:34.551Z,16.30
2022-10-16T20:49:11.020Z,16.20
2022-10-16T20:51:45.459Z,16.30
2022-10-16T20:54:13.668Z,16.20
2022-10-16T20:56:42.632Z,16.20
2022-10-16T20:59:13.404Z,16.20
2022-10-16T21:01:42.019Z,16.20
2022-10-16T21:04:10.633Z,16.10
2022-10-16T21:06:40.939Z,16.10
2022-10-16T21:09:10.099Z,16.10
2022-10-16T21:11:39.233Z,16.10
2022-10-16T21:14:09.686Z,16.00
2022-10-16T21:16:39.138Z,16.00
2022-10-16T21:19:07.705Z,16.00
2022-10-16T21:21:38.580Z,16.00
2022-10-16T21:24:11.961Z,15.90
2022-10-16T21:26:43.742Z,15.90
2022-10-16T21:29:12.310Z,15.80
2022-10-16T21:31:43.097Z,15.70
2022-10-16T21:34:11.638Z,15.60
2022-10-16T21:36:42.771Z,15.60
2022-10-16T21:39:13.615Z,15.50
2022-10-16T21:41:46.179Z,15.40
2022-10-16T21:44:15.083Z,15.30
2022-10-16T21:46:46.038Z,15.30
2022-10-16T21:49:17.699Z,15.20
2022-10-16T21:51:49.169Z,15.20
2022-10-16T21:54:20.441Z,15.10
2022-10-16T21:56:48.840Z,15.10
2022-10-16T21:59:18.045Z,15.00
2022-10-16T22:01:48.123Z,15.00
2022-10-16T22:04:17.844Z,14.90
2022-10-16T22:06:46.027Z,14.90
2022-10-16T22:09:15.818Z,14.80
2022-10-16T22:11:46.155Z,14.80
2022-10-16T22:14:17.222Z,14.70
2022-10-16T22:16:47.950Z,14.70
2022-10-16T22:19:18.994Z,14.60
2022-10-16T22:21:48.960Z,14.60
2022-10-16T22:24:17.608Z,14.50
2022-10-16T22:26:46.030Z,14.50
2022-10-16T22:29:16.033Z,14.40
2022-10-16T22:31:44.749Z,14.40
2022-10-16T22:34:15.806Z,14.40
2022-10-16T22:36:44.346Z,14.30
2022-10-16T22:39:12.595Z,14.30
2022-10-16T22:41:40.706Z,14.30
2022-10-16T22:44:13.191Z,14.20
2022-10-16T22:46:41.695Z,14.20
2022-10-16T22:49:09.838Z,14.10
2022-10-16T22:51:39.357Z,14.10
2022-10-16T22:54:07.555Z,14.00
2022-10-16T22:56:35.978Z,14.00
2022-10-16T22:59:04.342Z,13.90
2022-10-16T23:01:36.979Z,13.90
2022-10-16T23:04:06.826Z,13.90
2022-10-16T23:06:35.656Z,13.90
2022-10-16T23:09:05.269Z,13.80
2022-10-16T23:11:34.335Z,13.80
2022-10-16T23:14:02.629Z,13.70
2022-10-16T23:16:30.892Z,13.70
2022-10-16T23:18:59.735Z,13.70
2022-10-16T23:21:28.180Z,13.60
2022-10-16T23:23:56.591Z,13.60
2022-10-16T23:26:27.707Z,13.60
2022-10-16T23:28:58.851Z,13.50
2022-10-16T23:31:28.258Z,13.50
2022-10-16T23:33:58.027Z,13.50
2022-10-16T23:36:26.745Z,13.40
2022-10-16T23:38:55.756Z,13.40
2022-10-16T23:41:25.273Z,13.30
2022-10-16T23:43:53.666Z,13.30
2022-10-16T23:46:22.058Z,13.30
2022-10-16T23:48:50.258Z,13.20
2022-10-16T23:51:18.428Z,13.20
2022-10-16T23:53:47.027Z,13.20
2022-10-16T23:56:15.589Z,13.20
2022-10-16T23:58:45.177Z,13.20
